sensor_id;sensor_type;location;lat;lon;timestamp;P1;P2;P0
57049;PMS7003;42935;50.966;16.992;2023-11-21T00:04:23;6;3;2
57049;PMS7003;42935;50.966;16.992;2023-11-21T00:08:59;1;1;1
57049;PMS7003;42935;50.966;16.992;2023-11-21T00:13:33;3;2;2
57049;PMS7003;42935;50.966;16.992;2023-11-21T00:18:07;4;3;2
57049;PMS7003;42935;50.966;16.992;2023-11-21T00:22:41;4;3;2
57049;PMS7003;42935;50.966;16.992;2023-11-21T00:27:15;6;3;2
57049;PMS7003;42935;50.966;16.992;2023-11-21T00:31:48;5;4;2
57049;PMS7003;42935;50.966;16.992;2023-11-21T00:36:22;6;3;2
57049;PMS7003;42935;50.966;16.992;2023-11-21T00:40:57;4;3;2
57049;PMS7003;42935;50.966;16.992;2023-11-21T00:45:31;9;4;3
57049;PMS7003;42935;50.966;16.992;2023-11-21T00:50:04;6;2;2
57049;PMS7003;42935;50.966;16.992;2023-11-21T00:54:39;8;3;2
57049;PMS7003;42935;50.966;16.992;2023-11-21T00:59:12;5;3;3
57049;PMS7003;42935;50.966;16.992;2023-11-21T01:03:46;5;4;2
57049;PMS7003;42935;50.966;16.992;2023-11-21T01:08:20;7;3;2
57049;PMS7003;42935;50.966;16.992;2023-11-21T01:12:56;6;4;2
57049;PMS7003;42935;50.966;16.992;2023-11-21T01:17:25;6;5;3
57049;PMS7003;42935;50.966;16.992;2023-11-21T01:21:58;5;4;2
57049;PMS7003;42935;50.966;16.992;2023-11-21T01:26:28;6;5;4
57049;PMS7003;42935;50.966;16.992;2023-11-21T01:31:02;9;6;4
57049;PMS7003;42935;50.966;16.992;2023-11-21T01:35:35;8;3;3
57049;PMS7003;42935;50.966;16.992;2023-11-21T01:40:09;5;5;2
57049;PMS7003;42935;50.966;16.992;2023-11-21T01:44:45;6;5;3
57049;PMS7003;42935;50.966;16.992;2023-11-21T01:49:19;8;5;3
57049;PMS7003;42935;50.966;16.992;2023-11-21T01:53:52;7;4;3
57049;PMS7003;42935;50.966;16.992;2023-11-21T01:58:26;6;4;2
57049;PMS7003;42935;50.966;16.992;2023-11-21T02:03:00;7;5;2
57049;PMS7003;42935;50.966;16.992;2023-11-21T02:07:35;7;5;2
57049;PMS7003;42935;50.966;16.992;2023-11-21T02:12:09;7;6;4
57049;PMS7003;42935;50.966;16.992;2023-11-21T02:16:43;6;4;3
57049;PMS7003;42935;50.966;16.992;2023-11-21T02:21:20;9;5;3
57049;PMS7003;42935;50.966;16.992;2023-11-21T02:25:53;7;4;3
57049;PMS7003;42935;50.966;16.992;2023-11-21T02:30:27;5;3;2
57049;PMS7003;42935;50.966;16.992;2023-11-21T02:35:05;10;6;3
57049;PMS7003;42935;50.966;16.992;2023-11-21T02:39:40;8;6;5
57049;PMS7003;42935;50.966;16.992;2023-11-21T02:44:13;7;6;3
57049;PMS7003;42935;50.966;16.992;2023-11-21T02:48:47;7;5;4
57049;PMS7003;42935;50.966;16.992;2023-11-21T02:53:22;8;5;4
57049;PMS7003;42935;50.966;16.992;2023-11-21T02:57:57;8;6;4
57049;PMS7003;42935;50.966;16.992;2023-11-21T03:02:30;6;5;3
57049;PMS7003;42935;50.966;16.992;2023-11-21T03:07:03;7;5;3
57049;PMS7003;42935;50.966;16.992;2023-11-21T03:11:37;8;5;4
57049;PMS7003;42935;50.966;16.992;2023-11-21T03:16:10;8;7;5
57049;PMS7003;42935;50.966;16.992;2023-11-21T03:20:45;8;7;4
57049;PMS7003;42935;50.966;16.992;2023-11-21T03:25:18;7;6;3
57049;PMS7003;42935;50.966;16.992;2023-11-21T03:29:55;7;6;4
57049;PMS7003;42935;50.966;16.992;2023-11-21T03:34:28;10;7;5
57049;PMS7003;42935;50.966;16.992;2023-11-21T03:39:01;9;6;4
57049;PMS7003;42935;50.966;16.992;2023-11-21T03:43:36;10;7;5
57049;PMS7003;42935;50.966;16.992;2023-11-21T03:48:10;9;6;5
57049;PMS7003;42935;50.966;16.992;2023-11-21T03:52:45;14;6;5
57049;PMS7003;42935;50.966;16.992;2023-11-21T03:57:18;9;7;5
57049;PMS7003;42935;50.966;16.992;2023-11-21T04:01:52;9;7;5
57049;PMS7003;42935;50.966;16.992;2023-11-21T04:06:28;8;6;4
57049;PMS7003;42935;50.966;16.992;2023-11-21T04:11:04;13;7;4
57049;PMS7003;42935;50.966;16.992;2023-11-21T04:15:38;9;7;5
57049;PMS7003;42935;50.966;16.992;2023-11-21T04:20:12;5;5;3
57049;PMS7003;42935;50.966;16.992;2023-11-21T04:24:45;7;6;4
57049;PMS7003;42935;50.966;16.992;2023-11-21T04:29:20;13;5;4
57049;PMS7003;42935;50.966;16.992;2023-11-21T04:33:54;5;5;2
57049;PMS7003;42935;50.966;16.992;2023-11-21T04:38:27;6;5;4
57049;PMS7003;42935;50.966;16.992;2023-11-21T04:43:01;6;4;3
57049;PMS7003;42935;50.966;16.992;2023-11-21T04:47:36;9;6;4
57049;PMS7003;42935;50.966;16.992;2023-11-21T04:52:13;11;7;5
57049;PMS7003;42935;50.966;16.992;2023-11-21T04:56:47;10;7;6
57049;PMS7003;42935;50.966;16.992;2023-11-21T05:01:20;9;8;6
57049;PMS7003;42935;50.966;16.992;2023-11-21T05:05:53;11;8;5
57049;PMS7003;42935;50.966;16.992;2023-11-21T05:10:27;12;8;6
57049;PMS7003;42935;50.966;16.992;2023-11-21T05:15:02;8;7;5
57049;PMS7003;42935;50.966;16.992;2023-11-21T05:19:44;8;5;4
57049;PMS7003;42935;50.966;16.992;2023-11-21T05:24:19;8;4;3
57049;PMS7003;42935;50.966;16.992;2023-11-21T05:28:53;8;6;5
57049;PMS7003;42935;50.966;16.992;2023-11-21T05:33:26;13;8;6
57049;PMS7003;42935;50.966;16.992;2023-11-21T05:37:59;13;6;5
57049;PMS7003;42935;50.966;16.992;2023-11-21T05:42:33;10;7;5
57049;PMS7003;42935;50.966;16.992;2023-11-21T05:47:09;10;8;6
57049;PMS7003;42935;50.966;16.992;2023-11-21T05:51:44;12;7;5
57049;PMS7003;42935;50.966;16.992;2023-11-21T05:56:18;8;7;5
57049;PMS7003;42935;50.966;16.992;2023-11-21T06:00:52;10;8;6
57049;PMS7003;42935;50.966;16.992;2023-11-21T06:05:25;9;7;6
57049;PMS7003;42935;50.966;16.992;2023-11-21T06:09:59;10;7;5
57049;PMS7003;42935;50.966;16.992;2023-11-21T06:14:37;8;7;5
57049;PMS7003;42935;50.966;16.992;2023-11-21T06:19:10;10;6;5
57049;PMS7003;42935;50.966;16.992;2023-11-21T06:23:44;11;7;5
57049;PMS7003;42935;50.966;16.992;2023-11-21T06:28:17;13;8;6
57049;PMS7003;42935;50.966;16.992;2023-11-21T06:32:54;10;8;6
57049;PMS7003;42935;50.966;16.992;2023-11-21T06:37:28;9;8;6
57049;PMS7003;42935;50.966;16.992;2023-11-21T06:42:02;12;6;3
57049;PMS7003;42935;50.966;16.992;2023-11-21T06:46:42;11;8;4
57049;PMS7003;42935;50.966;16.992;2023-11-21T06:51:16;8;6;5
57049;PMS7003;42935;50.966;16.992;2023-11-21T06:55:50;7;6;3
57049;PMS7003;42935;50.966;16.992;2023-11-21T07:00:23;11;6;3
57049;PMS7003;42935;50.966;16.992;2023-11-21T07:04:58;8;7;5
57049;PMS7003;42935;50.966;16.992;2023-11-21T07:09:32;12;10;7
57049;PMS7003;42935;50.966;16.992;2023-11-21T07:14:06;12;8;6
57049;PMS7003;42935;50.966;16.992;2023-11-21T07:18:40;12;8;6
57049;PMS7003;42935;50.966;16.992;2023-11-21T07:23:14;16;8;6
57049;PMS7003;42935;50.966;16.992;2023-11-21T07:27:48;13;10;7
57049;PMS7003;42935;50.966;16.992;2023-11-21T07:32:22;11;8;6
57049;PMS7003;42935;50.966;16.992;2023-11-21T07:36:55;13;10;8
57049;PMS7003;42935;50.966;16.992;2023-11-21T07:41:29;19;13;9
57049;PMS7003;42935;50.966;16.992;2023-11-21T07:46:03;21;15;10
57049;PMS7003;42935;50.966;16.992;2023-11-21T07:50:37;40;30;19
57049;PMS7003;42935;50.966;16.992;2023-11-21T07:55:15;30;21;13
57049;PMS7003;42935;50.966;16.992;2023-11-21T07:59:49;26;22;15
57049;PMS7003;42935;50.966;16.992;2023-11-21T08:04:26;20;15;10
57049;PMS7003;42935;50.966;16.992;2023-11-21T08:09:00;16;12;9
57049;PMS7003;42935;50.966;16.992;2023-11-21T08:13:33;15;11;8
57049;PMS7003;42935;50.966;16.992;2023-11-21T08:18:07;17;16;9
57049;PMS7003;42935;50.966;16.992;2023-11-21T08:22:42;14;10;7
57049;PMS7003;42935;50.966;16.992;2023-11-21T08:27:16;16;11;8
57049;PMS7003;42935;50.966;16.992;2023-11-21T08:31:51;12;10;7
57049;PMS7003;42935;50.966;16.992;2023-11-21T08:36:25;14;9;7
57049;PMS7003;42935;50.966;16.992;2023-11-21T08:40:58;13;10;7
57049;PMS7003;42935;50.966;16.992;2023-11-21T08:45:32;15;13;8
57049;PMS7003;42935;50.966;16.992;2023-11-21T08:50:06;13;9;6
57049;PMS7003;42935;50.966;16.992;2023-11-21T08:54:40;16;13;9
57049;PMS7003;42935;50.966;16.992;2023-11-21T08:59:16;9;8;5
57049;PMS7003;42935;50.966;16.992;2023-11-21T09:03:52;10;8;6
57049;PMS7003;42935;50.966;16.992;2023-11-21T09:08:26;10;7;5
57049;PMS7003;42935;50.966;16.992;2023-11-21T09:13:01;7;6;3
57049;PMS7003;42935;50.966;16.992;2023-11-21T09:17:36;9;5;4
57049;PMS7003;42935;50.966;16.992;2023-11-21T09:22:11;8;6;4
57049;PMS7003;42935;50.966;16.992;2023-11-21T09:26:44;9;5;3
57049;PMS7003;42935;50.966;16.992;2023-11-21T09:31:18;4;3;2
57049;PMS7003;42935;50.966;16.992;2023-11-21T09:35:55;7;4;2
57049;PMS7003;42935;50.966;16.992;2023-11-21T09:40:28;7;4;3
57049;PMS7003;42935;50.966;16.992;2023-11-21T09:45:05;4;4;3
57049;PMS7003;42935;50.966;16.992;2023-11-21T09:49:48;9;5;3
57049;PMS7003;42935;50.966;16.992;2023-11-21T09:54:21;6;4;3
57049;PMS7003;42935;50.966;16.992;2023-11-21T09:58:56;6;4;3
57049;PMS7003;42935;50.966;16.992;2023-11-21T10:03:36;6;3;2
57049;PMS7003;42935;50.966;16.992;2023-11-21T10:08:09;7;4;3
57049;PMS7003;42935;50.966;16.992;2023-11-21T10:12:43;5;5;3
57049;PMS7003;42935;50.966;16.992;2023-11-21T10:17:26;8;5;3
57049;PMS7003;42935;50.966;16.992;2023-11-21T10:22:14;7;6;4
57049;PMS7003;42935;50.966;16.992;2023-11-21T10:26:50;6;4;3
57049;PMS7003;42935;50.966;16.992;2023-11-21T10:31:27;10;4;3
57049;PMS7003;42935;50.966;16.992;2023-11-21T10:36:02;9;5;3
57049;PMS7003;42935;50.966;16.992;2023-11-21T10:40:39;6;6;4
57049;PMS7003;42935;50.966;16.992;2023-11-21T10:45:17;9;4;3
57049;PMS7003;42935;50.966;16.992;2023-11-21T10:49:51;8;6;4
57049;PMS7003;42935;50.966;16.992;2023-11-21T10:54:28;7;4;3
57049;PMS7003;42935;50.966;16.992;2023-11-21T10:59:02;7;6;5
57049;PMS7003;42935;50.966;16.992;2023-11-21T11:03:37;10;7;5
57049;PMS7003;42935;50.966;16.992;2023-11-21T11:08:12;10;6;4
57049;PMS7003;42935;50.966;16.992;2023-11-21T11:12:50;11;7;6
57049;PMS7003;42935;50.966;16.992;2023-11-21T11:17:24;10;7;5
57049;PMS7003;42935;50.966;16.992;2023-11-21T11:22:05;11;7;4
57049;PMS7003;42935;50.966;16.992;2023-11-21T11:40:58;10;9;6
57049;PMS7003;42935;50.966;16.992;2023-11-21T11:45:36;13;10;6
57049;PMS7003;42935;50.966;16.992;2023-11-21T11:50:14;13;11;7
57049;PMS7003;42935;50.966;16.992;2023-11-21T11:54:52;12;9;6
57049;PMS7003;42935;50.966;16.992;2023-11-21T11:59:26;14;10;7
57049;PMS7003;42935;50.966;16.992;2023-11-21T12:08:51;9;8;6
57049;PMS7003;42935;50.966;16.992;2023-11-21T12:13:25;45;32;21
57049;PMS7003;42935;50.966;16.992;2023-11-21T12:17:59;46;36;23
57049;PMS7003;42935;50.966;16.992;2023-11-21T12:22:35;47;36;22
57049;PMS7003;42935;50.966;16.992;2023-11-21T12:27:13;50;34;22
57049;PMS7003;42935;50.966;16.992;2023-11-21T12:31:50;48;37;21
57049;PMS7003;42935;50.966;16.992;2023-11-21T12:36:31;48;35;21
57049;PMS7003;42935;50.966;16.992;2023-11-21T12:41:13;48;35;22
57049;PMS7003;42935;50.966;16.992;2023-11-21T12:50:43;61;45;29
57049;PMS7003;42935;50.966;16.992;2023-11-21T12:55:32;66;50;30
57049;PMS7003;42935;50.966;16.992;2023-11-21T13:00:13;59;46;27
57049;PMS7003;42935;50.966;16.992;2023-11-21T13:05:03;59;42;26
57049;PMS7003;42935;50.966;16.992;2023-11-21T13:09:53;53;39;24
57049;PMS7003;42935;50.966;16.992;2023-11-21T13:14:30;51;40;24
57049;PMS7003;42935;50.966;16.992;2023-11-21T13:19:39;47;35;21
57049;PMS7003;42935;50.966;16.992;2023-11-21T13:24:20;40;32;20
57049;PMS7003;42935;50.966;16.992;2023-11-21T13:28:57;45;33;22
57049;PMS7003;42935;50.966;16.992;2023-11-21T13:33:40;48;36;21
57049;PMS7003;42935;50.966;16.992;2023-11-21T13:38:36;44;33;20
57049;PMS7003;42935;50.966;16.992;2023-11-21T13:43:22;37;30;19
57049;PMS7003;42935;50.966;16.992;2023-11-21T13:48:03;35;32;17
57049;PMS7003;42935;50.966;16.992;2023-11-21T13:52:45;41;31;17
57049;PMS7003;42935;50.966;16.992;2023-11-21T13:57:22;32;24;14
57049;PMS7003;42935;50.966;16.992;2023-11-21T14:01:59;25;21;14
57049;PMS7003;42935;50.966;16.992;2023-11-21T14:06:45;28;23;13
57049;PMS7003;42935;50.966;16.992;2023-11-21T14:11:22;23;19;12
57049;PMS7003;42935;50.966;16.992;2023-11-21T14:15:55;28;18;11
57049;PMS7003;42935;50.966;16.992;2023-11-21T14:20:37;20;17;10
57049;PMS7003;42935;50.966;16.992;2023-11-21T14:25:12;24;19;13
57049;PMS7003;42935;50.966;16.992;2023-11-21T14:29:46;18;13;9
57049;PMS7003;42935;50.966;16.992;2023-11-21T14:34:20;16;11;8
57049;PMS7003;42935;50.966;16.992;2023-11-21T14:38:55;36;25;15
57049;PMS7003;42935;50.966;16.992;2023-11-21T14:43:28;21;13;9
57049;PMS7003;42935;50.966;16.992;2023-11-21T14:48:06;30;21;13
57049;PMS7003;42935;50.966;16.992;2023-11-21T14:52:53;19;17;12
57049;PMS7003;42935;50.966;16.992;2023-11-21T14:57:30;22;15;11
57049;PMS7003;42935;50.966;16.992;2023-11-21T15:02:05;20;13;9
57049;PMS7003;42935;50.966;16.992;2023-11-21T15:06:49;16;8;6
57049;PMS7003;42935;50.966;16.992;2023-11-21T15:11:30;12;7;5
57049;PMS7003;42935;50.966;16.992;2023-11-21T15:16:11;24;17;10
57049;PMS7003;42935;50.966;16.992;2023-11-21T15:20:44;12;11;7
57049;PMS7003;42935;50.966;16.992;2023-11-21T15:25:18;14;9;7
57049;PMS7003;42935;50.966;16.992;2023-11-21T15:29:53;12;10;5
57049;PMS7003;42935;50.966;16.992;2023-11-21T15:34:26;15;13;10
57049;PMS7003;42935;50.966;16.992;2023-11-21T15:38:59;22;12;8
57049;PMS7003;42935;50.966;16.992;2023-11-21T15:43:32;19;12;9
57049;PMS7003;42935;50.966;16.992;2023-11-21T15:48:12;25;17;11
57049;PMS7003;42935;50.966;16.992;2023-11-21T15:52:48;20;13;8
57049;PMS7003;42935;50.966;16.992;2023-11-21T15:57:22;13;7;6
57049;PMS7003;42935;50.966;16.992;2023-11-21T16:01:56;23;12;9
57049;PMS7003;42935;50.966;16.992;2023-11-21T16:06:30;12;11;7
57049;PMS7003;42935;50.966;16.992;2023-11-21T16:11:19;22;15;9
57049;PMS7003;42935;50.966;16.992;2023-11-21T16:15:54;14;11;9
57049;PMS7003;42935;50.966;16.992;2023-11-21T16:20:30;19;13;9
57049;PMS7003;42935;50.966;16.992;2023-11-21T16:25:04;23;17;10
57049;PMS7003;42935;50.966;16.992;2023-11-21T16:29:43;28;22;11
57049;PMS7003;42935;50.966;16.992;2023-11-21T16:34:19;24;20;10
57049;PMS7003;42935;50.966;16.992;2023-11-21T16:38:53;22;15;11
57049;PMS7003;42935;50.966;16.992;2023-11-21T16:43:30;19;12;9
57049;PMS7003;42935;50.966;16.992;2023-11-21T16:48:04;21;16;11
57049;PMS7003;42935;50.966;16.992;2023-11-21T16:52:40;24;12;9
57049;PMS7003;42935;50.966;16.992;2023-11-21T16:57:15;25;17;11
57049;PMS7003;42935;50.966;16.992;2023-11-21T17:01:49;21;14;10
57049;PMS7003;42935;50.966;16.992;2023-11-21T17:06:23;23;19;12
57049;PMS7003;42935;50.966;16.992;2023-11-21T17:10:57;24;15;11
57049;PMS7003;42935;50.966;16.992;2023-11-21T17:15:31;31;20;14
57049;PMS7003;42935;50.966;16.992;2023-11-21T17:20:05;20;13;10
57049;PMS7003;42935;50.966;16.992;2023-11-21T17:24:42;23;14;10
57049;PMS7003;42935;50.966;16.992;2023-11-21T17:29:12;20;16;12
57049;PMS7003;42935;50.966;16.992;2023-11-21T17:33:48;27;19;13
57049;PMS7003;42935;50.966;16.992;2023-11-21T17:38:23;28;21;14
57049;PMS7003;42935;50.966;16.992;2023-11-21T17:42:57;20;14;10
57049;PMS7003;42935;50.966;16.992;2023-11-21T17:47:31;22;16;11
57049;PMS7003;42935;50.966;16.992;2023-11-21T17:52:04;24;16;10
57049;PMS7003;42935;50.966;16.992;2023-11-21T17:56:38;20;13;10
57049;PMS7003;42935;50.966;16.992;2023-11-21T18:01:10;20;15;9
57049;PMS7003;42935;50.966;16.992;2023-11-21T18:05:44;24;15;10
57049;PMS7003;42935;50.966;16.992;2023-11-21T18:10:18;18;16;11
57049;PMS7003;42935;50.966;16.992;2023-11-21T18:14:51;21;14;10
57049;PMS7003;42935;50.966;16.992;2023-11-21T18:19:25;20;17;13
57049;PMS7003;42935;50.966;16.992;2023-11-21T18:24:03;34;23;14
57049;PMS7003;42935;50.966;16.992;2023-11-21T18:28:38;34;23;14
57049;PMS7003;42935;50.966;16.992;2023-11-21T18:33:12;39;26;17
57049;PMS7003;42935;50.966;16.992;2023-11-21T18:37:46;45;30;20
57049;PMS7003;42935;50.966;16.992;2023-11-21T18:42:19;37;24;16
57049;PMS7003;42935;50.966;16.992;2023-11-21T18:46:55;36;20;13
57049;PMS7003;42935;50.966;16.992;2023-11-21T18:51:32;48;33;19
57049;PMS7003;42935;50.966;16.992;2023-11-21T18:56:08;56;42;26
57049;PMS7003;42935;50.966;16.992;2023-11-21T19:00:46;42;30;19
57049;PMS7003;42935;50.966;16.992;2023-11-21T19:05:21;47;29;17
57049;PMS7003;42935;50.966;16.992;2023-11-21T19:10:00;37;29;18
57049;PMS7003;42935;50.966;16.992;2023-11-21T19:14:35;42;30;21
57049;PMS7003;42935;50.966;16.992;2023-11-21T19:19:12;41;32;18
57049;PMS7003;42935;50.966;16.992;2023-11-21T19:23:46;34;27;19
57049;PMS7003;42935;50.966;16.992;2023-11-21T19:28:23;38;26;18
57049;PMS7003;42935;50.966;16.992;2023-11-21T19:32:56;29;23;18
57049;PMS7003;42935;50.966;16.992;2023-11-21T19:37:36;39;24;15
57049;PMS7003;42935;50.966;16.992;2023-11-21T19:42:10;34;23;15
57049;PMS7003;42935;50.966;16.992;2023-11-21T19:46:43;30;24;15
57049;PMS7003;42935;50.966;16.992;2023-11-21T19:51:17;30;19;13
57049;PMS7003;42935;50.966;16.992;2023-11-21T19:55:53;46;30;18
57049;PMS7003;42935;50.966;16.992;2023-11-21T20:00:22;36;26;16
57049;PMS7003;42935;50.966;16.992;2023-11-21T20:04:57;43;28;18
57049;PMS7003;42935;50.966;16.992;2023-11-21T20:09:38;44;29;17
57049;PMS7003;42935;50.966;16.992;2023-11-21T20:14:11;39;27;18
57049;PMS7003;42935;50.966;16.992;2023-11-21T20:18:47;40;28;18
57049;PMS7003;42935;50.966;16.992;2023-11-21T20:23:24;39;28;17
57049;PMS7003;42935;50.966;16.992;2023-11-21T20:28:02;39;28;19
57049;PMS7003;42935;50.966;16.992;2023-11-21T20:32:45;42;32;21
57049;PMS7003;42935;50.966;16.992;2023-11-21T20:37:21;39;28;19
57049;PMS7003;42935;50.966;16.992;2023-11-21T20:41:53;48;29;17
57049;PMS7003;42935;50.966;16.992;2023-11-21T20:46:26;32;25;18
57049;PMS7003;42935;50.966;16.992;2023-11-21T20:51:00;42;33;19
57049;PMS7003;42935;50.966;16.992;2023-11-21T20:55:37;38;25;18
57049;PMS7003;42935;50.966;16.992;2023-11-21T21:00:11;30;24;16
57049;PMS7003;42935;50.966;16.992;2023-11-21T21:04:49;38;26;18
57049;PMS7003;42935;50.966;16.992;2023-11-21T21:09:22;34;25;18
57049;PMS7003;42935;50.966;16.992;2023-11-21T21:13:55;28;19;14
57049;PMS7003;42935;50.966;16.992;2023-11-21T21:18:29;35;25;13
57049;PMS7003;42935;50.966;16.992;2023-11-21T21:23:04;32;23;15
57049;PMS7003;42935;50.966;16.992;2023-11-21T21:27:38;31;23;16
57049;PMS7003;42935;50.966;16.992;2023-11-21T21:32:11;36;23;17
57049;PMS7003;42935;50.966;16.992;2023-11-21T21:36:45;39;25;17
57049;PMS7003;42935;50.966;16.992;2023-11-21T21:41:19;39;29;19
57049;PMS7003;42935;50.966;16.992;2023-11-21T21:45:52;45;28;18
57049;PMS7003;42935;50.966;16.992;2023-11-21T21:50:27;37;29;18
57049;PMS7003;42935;50.966;16.992;2023-11-21T21:55:01;41;26;17
57049;PMS7003;42935;50.966;16.992;2023-11-21T21:59:36;38;26;16
57049;PMS7003;42935;50.966;16.992;2023-11-21T22:04:14;32;23;15
57049;PMS7003;42935;50.966;16.992;2023-11-21T22:08:55;35;22;13
57049;PMS7003;42935;50.966;16.992;2023-11-21T22:13:30;26;19;12
57049;PMS7003;42935;50.966;16.992;2023-11-21T22:18:04;28;19;11
57049;PMS7003;42935;50.966;16.992;2023-11-21T22:22:37;29;17;13
57049;PMS7003;42935;50.966;16.992;2023-11-21T22:27:11;26;21;14
57049;PMS7003;42935;50.966;16.992;2023-11-21T22:31:53;35;26;15
57049;PMS7003;42935;50.966;16.992;2023-11-21T22:36:31;28;19;12
57049;PMS7003;42935;50.966;16.992;2023-11-21T22:41:03;39;23;16
57049;PMS7003;42935;50.966;16.992;2023-11-21T22:45:37;36;27;15
57049;PMS7003;42935;50.966;16.992;2023-11-21T22:50:14;36;29;15
57049;PMS7003;42935;50.966;16.992;2023-11-21T22:54:47;39;24;15
57049;PMS7003;42935;50.966;16.992;2023-11-21T22:59:20;30;25;15
57049;PMS7003;42935;50.966;16.992;2023-11-21T23:03:54;42;24;16
57049;PMS7003;42935;50.966;16.992;2023-11-21T23:08:28;35;23;16
57049;PMS7003;42935;50.966;16.992;2023-11-21T23:13:02;27;21;15
57049;PMS7003;42935;50.966;16.992;2023-11-21T23:17:36;37;27;19
57049;PMS7003;42935;50.966;16.992;2023-11-21T23:22:09;39;25;15
57049;PMS7003;42935;50.966;16.992;2023-11-21T23:26:43;30;23;15
57049;PMS7003;42935;50.966;16.992;2023-11-21T23:31:19;32;24;17
57049;PMS7003;42935;50.966;16.992;2023-11-21T23:35:52;41;29;20
57049;PMS7003;42935;50.966;16.992;2023-11-21T23:40:25;43;29;16
57049;PMS7003;42935;50.966;16.992;2023-11-21T23:44:58;42;33;20
57049;PMS7003;42935;50.966;16.992;2023-11-21T23:49:43;45;28;16
57049;PMS7003;42935;50.966;16.992;2023-11-21T23:54:20;43;28;18
57049;PMS7003;42935;50.966;16.992;2023-11-21T23:58:55;41;23;17
